Time;durP1;ratioP1;P1;durP2;ratioP2;P2;SDS_P1;SDS_P2;PMS_P1;PMS_P2;Temp;Humidity;BMP_temperature;BMP_pressure;BME280_temperature;BME280_humidity;BME280_pressure;Samples;Min_cycle;Max_cycle;Signal;HPM_P1;HPM_P2
2021/07/24 00:02:07;;;;;;;13.20;8.27;;;18.40;75.60;;;;;;5054769;28;20082;-77
2021/07/24 00:04:34;;;;;;;12.93;7.75;;;18.30;75.50;;;;;;5054510;28;20076;-78
2021/07/24 00:07:00;;;;;;;13.02;7.90;;;18.30;75.70;;;;;;5056103;28;20454;-77
2021/07/24 00:09:26;;;;;;;11.15;7.70;;;18.30;75.70;;;;;;5055549;28;20021;-77
2021/07/24 00:11:51;;;;;;;12.52;8.32;;;18.20;75.70;;;;;;5055507;28;20021;-76
2021/07/24 00:14:17;;;;;;;14.32;8.82;;;18.20;76.20;;;;;;5054165;28;20032;-78
2021/07/24 00:16:43;;;;;;;15.07;8.15;;;18.20;76.30;;;;;;5055477;28;20556;-77
2021/07/24 00:19:08;;;;;;;12.32;7.30;;;18.20;76.50;;;;;;5054083;28;20277;-78
2021/07/24 00:21:34;;;;;;;14.85;9.38;;;18.10;76.70;;;;;;5055363;28;20113;-77
2021/07/24 00:23:59;;;;;;;13.27;8.38;;;18.10;76.60;;;;;;5052835;28;20031;-78
2021/07/24 00:26:25;;;;;;;14.38;8.75;;;18.20;77.10;;;;;;5047146;28;20032;-78
2021/07/24 00:28:51;;;;;;;13.00;8.50;;;18.20;77.40;;;;;;5054744;28;20029;-77
2021/07/24 00:31:17;;;;;;;13.02;8.43;;;18.10;77.10;;;;;;5055101;28;20078;-77
2021/07/24 00:33:42;;;;;;;13.55;8.60;;;18.10;77.30;;;;;;5053760;28;20075;-77
2021/07/24 00:36:08;;;;;;;13.55;8.68;;;18.00;77.30;;;;;;5053647;28;20067;-77
2021/07/24 00:38:34;;;;;;;13.88;8.52;;;18.00;77.80;;;;;;5052445;28;20098;-76
2021/07/24 00:41:08;;;;;;;15.27;8.65;;;18.00;77.70;;;;;;5036962;28;20496;-78
2021/07/24 00:43:35;;;;;;;14.40;8.57;;;18.00;77.80;;;;;;5052063;28;20028;-77
2021/07/24 00:46:04;;;;;;;16.55;8.73;;;18.00;77.70;;;;;;5053377;28;20040;-77
2021/07/24 00:48:34;;;;;;;12.70;8.27;;;18.00;77.90;;;;;;5054051;28;20457;-77
2021/07/24 00:51:00;;;;;;;14.93;9.48;;;17.90;78.20;;;;;;5054986;28;20021;-78
2021/07/24 00:53:34;;;;;;;16.25;9.52;;;17.90;78.10;;;;;;5020809;28;20132;-77
2021/07/24 00:56:02;;;;;;;15.13;8.93;;;17.90;78.40;;;;;;5054911;28;20025;-77
2021/07/24 00:58:35;;;;;;;16.10;9.70;;;17.80;78.30;;;;;;5053354;28;20070;-77
2021/07/24 01:01:02;;;;;;;14.18;8.85;;;17.90;78.60;;;;;;5053380;28;20096;-77
2021/07/24 01:03:28;;;;;;;12.70;8.10;;;17.80;78.60;;;;;;5036892;28;20508;-77
2021/07/24 01:05:56;;;;;;;15.38;9.38;;;17.80;78.60;;;;;;5053363;28;20025;-78
2021/07/24 01:08:23;;;;;;;15.30;8.35;;;17.80;78.90;;;;;;5054503;28;20025;-77
2021/07/24 01:10:49;;;;;;;15.23;9.10;;;17.80;79.00;;;;;;5054442;28;20091;-77
2021/07/24 01:13:16;;;;;;;13.57;8.90;;;17.80;79.00;;;;;;5036462;28;20025;-77
2021/07/24 01:15:47;;;;;;;14.27;9.23;;;17.80;79.20;;;;;;5054349;28;20036;-77
2021/07/24 01:18:13;;;;;;;13.88;9.07;;;17.70;79.30;;;;;;5054469;28;20036;-77
2021/07/24 01:20:41;;;;;;;14.68;8.63;;;17.70;79.50;;;;;;5054308;28;20079;-77
2021/07/24 01:23:07;;;;;;;15.75;9.45;;;17.70;79.50;;;;;;5053060;28;20033;-77
2021/07/24 01:25:34;;;;;;;13.15;8.65;;;17.70;79.40;;;;;;5052949;28;20017;-77
2021/07/24 01:27:59;;;;;;;14.13;8.73;;;17.60;79.70;;;;;;5036855;28;20492;-78
2021/07/24 01:30:25;;;;;;;16.33;9.65;;;17.60;79.80;;;;;;5036360;28;20025;-78
2021/07/24 01:32:51;;;;;;;17.02;9.88;;;17.60;79.80;;;;;;5036375;28;20045;-77
2021/07/24 01:35:16;;;;;;;16.10;10.52;;;17.60;80.30;;;;;;5052115;28;20362;-77
2021/07/24 01:37:42;;;;;;;15.18;8.73;;;17.50;80.30;;;;;;5052933;28;20158;-77
2021/07/24 01:40:08;;;;;;;15.13;8.90;;;17.50;80.40;;;;;;5052764;28;20488;-77
2021/07/24 01:42:33;;;;;;;14.60;9.45;;;17.50;80.50;;;;;;5036602;28;20123;-77
2021/07/24 01:44:59;;;;;;;16.20;9.05;;;17.40;80.70;;;;;;5052418;28;20183;-78
2021/07/24 01:47:25;;;;;;;15.90;9.38;;;17.40;80.70;;;;;;5035876;28;20029;-78
2021/07/24 01:52:48;;;;;;;16.67;9.65;;;17.40;81.00;;;;;;5056790;28;20501;-77
2021/07/24 01:55:48;;;;;;;15.45;8.82;;;17.40;81.90;;;;;;5053792;28;20414;-77
2021/07/24 01:58:18;;;;;;;17.63;9.82;;;17.30;81.30;;;;;;5053457;28;20542;-78
2021/07/24 02:00:45;;;;;;;16.75;9.88;;;17.30;81.30;;;;;;5052188;28;20025;-78
2021/07/24 02:03:14;;;;;;;18.25;10.23;;;17.30;81.30;;;;;;5052128;28;20492;-78
2021/07/24 02:05:45;;;;;;;14.82;8.98;;;17.20;81.50;;;;;;5052253;28;20052;-77
2021/07/24 02:08:15;;;;;;;15.50;9.52;;;17.20;81.60;;;;;;5047899;28;20032;-77
2021/07/24 02:10:42;;;;;;;17.38;9.63;;;17.20;82.00;;;;;;5049957;28;20029;-76
2021/07/24 02:13:10;;;;;;;17.27;9.57;;;17.10;82.00;;;;;;5052458;28;20756;-77
2021/07/24 02:15:37;;;;;;;15.68;9.38;;;17.10;82.00;;;;;;5052098;28;20112;-77
2021/07/24 02:18:04;;;;;;;19.45;11.32;;;17.00;82.20;;;;;;5051969;28;20388;-77
2021/07/24 02:20:29;;;;;;;15.52;8.48;;;17.00;82.40;;;;;;5053229;28;20065;-77
2021/07/24 02:22:56;;;;;;;18.33;9.45;;;17.00;82.50;;;;;;5053067;28;20060;-77
2021/07/24 02:25:22;;;;;;;14.27;8.95;;;17.00;82.60;;;;;;5052335;28;20380;-77
2021/07/24 02:27:49;;;;;;;16.77;8.98;;;17.00;82.80;;;;;;5053542;28;20029;-77
2021/07/24 02:30:16;;;;;;;18.30;9.65;;;16.90;82.80;;;;;;5053658;28;20051;-78
2021/07/24 02:32:42;;;;;;;13.00;8.52;;;16.90;83.00;;;;;;5053513;28;20454;-77
2021/07/24 02:35:09;;;;;;;15.05;8.88;;;16.90;83.10;;;;;;5053549;28;20419;-77
2021/07/24 02:37:35;;;;;;;14.27;8.88;;;16.90;83.20;;;;;;5053242;28;20387;-77
2021/07/24 02:40:02;;;;;;;17.40;10.07;;;16.80;83.30;;;;;;5052467;28;20033;-78
2021/07/24 02:42:27;;;;;;;15.63;9.30;;;16.80;83.30;;;;;;5053518;28;20035;-78
2021/07/24 02:44:53;;;;;;;15.32;9.13;;;16.80;83.60;;;;;;5051374;28;20356;-77
2021/07/24 02:47:19;;;;;;;17.48;9.63;;;16.80;83.90;;;;;;5048471;28;20434;-78
2021/07/24 02:49:45;;;;;;;16.98;10.32;;;16.70;83.90;;;;;;5031870;28;20091;-77
2021/07/24 02:52:11;;;;;;;15.40;9.85;;;16.70;84.10;;;;;;5032081;28;20095;-77
2021/07/24 02:54:36;;;;;;;15.32;9.43;;;16.70;84.20;;;;;;5033054;28;20481;-77
2021/07/24 02:57:03;;;;;;;16.83;9.85;;;16.70;84.20;;;;;;5032005;28;20389;-77
2021/07/24 02:59:29;;;;;;;16.15;9.65;;;16.70;84.20;;;;;;5032108;28;20473;-78
2021/07/24 03:01:54;;;;;;;15.73;10.05;;;16.60;84.50;;;;;;5017274;28;20034;-77
2021/07/24 03:04:20;;;;;;;16.23;10.50;;;16.60;84.60;;;;;;5019045;28;20064;-78
2021/07/24 03:06:46;;;;;;;16.25;10.13;;;16.60;85.00;;;;;;5035686;28;20040;-77
2021/07/24 03:09:11;;;;;;;16.08;10.40;;;16.50;84.90;;;;;;5049376;28;20032;-78
2021/07/24 03:11:38;;;;;;;17.17;9.60;;;16.60;85.60;;;;;;5040311;28;20363;-78
2021/07/24 03:14:03;;;;;;;15.68;9.20;;;16.50;85.40;;;;;;5051966;28;20080;-75
2021/07/24 03:16:30;;;;;;;18.88;10.35;;;16.50;86.10;;;;;;5036766;28;20030;-77
2021/07/24 03:18:56;;;;;;;19.05;9.65;;;16.50;85.60;;;;;;5036626;28;20425;-78
2021/07/24 03:21:22;;;;;;;15.93;9.60;;;16.50;85.60;;;;;;5036553;28;20032;-77
2021/07/24 03:23:48;;;;;;;16.30;9.20;;;16.40;85.80;;;;;;5036698;28;20025;-78
2021/07/24 03:26:14;;;;;;;15.85;10.40;;;16.40;85.90;;;;;;5035453;28;20389;-77
2021/07/24 03:28:39;;;;;;;17.95;9.98;;;16.40;86.20;;;;;;5036776;28;20424;-78
2021/07/24 03:31:05;;;;;;;17.08;10.23;;;16.30;86.30;;;;;;5036472;28;20057;-77
2021/07/24 03:33:31;;;;;;;15.15;8.50;;;16.40;86.60;;;;;;5035481;28;20123;-77
2021/07/24 03:35:57;;;;;;;13.65;9.20;;;16.30;86.50;;;;;;5035516;28;20577;-77
2021/07/24 03:38:23;;;;;;;18.13;10.57;;;16.30;86.70;;;;;;5036114;28;20037;-77
2021/07/24 03:40:49;;;;;;;15.93;9.70;;;16.30;87.00;;;;;;5036357;28;20025;-77
2021/07/24 03:43:15;;;;;;;14.93;9.85;;;16.30;87.00;;;;;;5035208;28;20029;-77
2021/07/24 03:45:41;;;;;;;17.00;10.10;;;16.20;87.40;;;;;;5051877;28;20066;-77
2021/07/24 03:48:07;;;;;;;16.15;8.98;;;16.20;87.20;;;;;;5035314;28;20053;-77
2021/07/24 03:50:32;;;;;;;18.27;11.13;;;16.20;87.20;;;;;;5035043;28;20389;-77
2021/07/24 03:52:58;;;;;;;16.38;9.40;;;16.20;87.40;;;;;;5035049;28;20458;-76
2021/07/24 03:55:24;;;;;;;18.00;10.18;;;16.20;87.50;;;;;;5018714;28;20034;-76
2021/07/24 03:57:52;;;;;;;14.88;8.80;;;16.20;87.60;;;;;;5036119;28;20057;-77
2021/07/24 04:00:18;;;;;;;17.23;9.02;;;16.20;87.60;;;;;;5034013;28;20049;-76
2021/07/24 04:02:44;;;;;;;16.40;9.85;;;16.20;87.80;;;;;;5050547;28;20508;-77
2021/07/24 04:05:11;;;;;;;15.93;10.27;;;16.20;88.20;;;;;;5053536;28;20057;-78
2021/07/24 04:07:38;;;;;;;15.25;9.88;;;16.20;88.50;;;;;;5052877;28;20511;-76
2021/07/24 04:10:08;;;;;;;16.85;9.85;;;16.20;88.30;;;;;;5054449;28;20028;-76
2021/07/24 04:12:36;;;;;;;18.70;10.30;;;16.20;88.50;;;;;;5055757;28;20480;-76
2021/07/24 04:15:03;;;;;;;20.17;10.32;;;16.20;88.50;;;;;;5055064;28;20028;-76
2021/07/24 04:17:29;;;;;;;18.25;10.25;;;16.20;88.60;;;;;;5053522;28;20071;-78
2021/07/24 04:19:55;;;;;;;15.75;9.63;;;16.20;88.90;;;;;;5037718;28;20017;-77
2021/07/24 04:22:21;;;;;;;15.95;10.20;;;16.20;89.00;;;;;;5055453;28;20063;-76
2021/07/24 04:24:47;;;;;;;19.75;9.93;;;16.30;88.80;;;;;;5054141;28;20424;-78
2021/07/24 04:27:14;;;;;;;16.23;9.25;;;16.30;89.10;;;;;;5037682;28;20104;-76
2021/07/24 04:29:39;;;;;;;15.90;9.98;;;16.30;88.70;;;;;;5037347;28;20042;-77
2021/07/24 04:32:06;;;;;;;15.65;8.80;;;16.40;88.70;;;;;;5055368;28;20112;-78
2021/07/24 04:34:31;;;;;;;15.93;9.13;;;16.40;88.60;;;;;;5037648;28;20029;-78
2021/07/24 04:36:57;;;;;;;11.82;7.63;;;16.50;88.60;;;;;;5054269;28;20090;-78
2021/07/24 04:39:23;;;;;;;14.57;8.32;;;16.50;88.50;;;;;;5037106;28;20527;-77
2021/07/24 04:41:49;;;;;;;15.52;8.40;;;16.50;88.50;;;;;;5053735;28;20029;-77
2021/07/24 04:44:14;;;;;;;12.10;7.80;;;16.60;88.40;;;;;;5054278;28;20484;-78
2021/07/24 04:46:40;;;;;;;14.40;8.75;;;16.50;88.30;;;;;;5054298;28;20029;-77
2021/07/24 04:49:06;;;;;;;13.10;7.97;;;16.60;88.30;;;;;;5053926;28;20381;-78
2021/07/24 04:51:33;;;;;;;15.20;8.68;;;16.70;88.30;;;;;;5055373;28;20027;-77
2021/07/24 04:53:59;;;;;;;14.13;8.23;;;16.70;88.10;;;;;;5037602;28;20079;-78
2021/07/24 04:56:25;;;;;;;14.32;7.82;;;16.70;88.20;;;;;;5054782;28;20424;-77
2021/07/24 04:58:51;;;;;;;14.80;8.27;;;16.70;88.20;;;;;;5053913;28;20104;-78
2021/07/24 05:01:21;;;;;;;14.30;8.65;;;16.80;88.10;;;;;;5055332;28;20473;-77
2021/07/24 05:03:47;;;;;;;14.32;8.15;;;16.80;88.00;;;;;;5053497;28;20052;-78
2021/07/24 05:06:13;;;;;;;13.40;8.43;;;16.90;88.00;;;;;;5037031;28;20476;-77
2021/07/24 05:08:39;;;;;;;15.13;8.50;;;16.90;87.90;;;;;;5054747;28;20026;-76
2021/07/24 05:11:05;;;;;;;14.55;8.60;;;17.00;87.90;;;;;;5036651;28;20025;-77
2021/07/24 05:13:30;;;;;;;13.68;8.35;;;16.90;87.90;;;;;;5053254;28;20373;-77
2021/07/24 05:15:56;;;;;;;14.45;7.47;;;17.00;87.90;;;;;;5053201;28;20068;-78
2021/07/24 05:18:22;;;;;;;15.18;9.20;;;17.00;87.70;;;;;;5036703;28;20441;-77
2021/07/24 05:20:48;;;;;;;11.65;7.45;;;17.00;87.70;;;;;;5036674;28;20036;-76
2021/07/24 05:23:14;;;;;;;13.25;8.18;;;17.10;87.70;;;;;;5053216;28;20021;-77
2021/07/24 05:25:41;;;;;;;14.32;8.73;;;17.10;87.60;;;;;;5052642;28;20426;-78
2021/07/24 05:28:06;;;;;;;14.02;8.68;;;17.20;87.50;;;;;;5052829;28;20500;-78
2021/07/24 05:30:32;;;;;;;11.68;7.70;;;17.20;87.30;;;;;;5053234;28;20025;-77
2021/07/24 05:32:58;;;;;;;15.82;8.75;;;17.30;87.30;;;;;;5051342;28;20049;-76
2021/07/24 05:35:24;;;;;;;13.65;8.25;;;17.30;87.10;;;;;;5046099;28;20035;-78
2021/07/24 05:37:49;;;;;;;13.65;8.05;;;17.40;87.00;;;;;;5048807;28;20037;-77
2021/07/24 05:40:15;;;;;;;13.40;8.23;;;17.40;86.90;;;;;;5045478;28;20025;-77
2021/07/24 05:42:41;;;;;;;14.65;8.38;;;17.50;86.70;;;;;;5042205;28;20079;-78
2021/07/24 05:45:07;;;;;;;13.18;8.05;;;17.50;86.70;;;;;;5046578;28;20048;-78
2021/07/24 05:47:33;;;;;;;12.27;7.13;;;17.50;86.40;;;;;;5027147;28;20108;-77
2021/07/24 05:49:59;;;;;;;14.43;8.27;;;17.60;86.30;;;;;;5039958;28;20025;-77
2021/07/24 05:52:25;;;;;;;14.50;8.45;;;17.70;86.20;;;;;;5051731;28;20025;-77
2021/07/24 05:54:51;;;;;;;12.15;7.47;;;17.70;86.00;;;;;;5053347;28;20469;-76
2021/07/24 05:57:17;;;;;;;12.10;7.45;;;17.80;85.80;;;;;;5052288;28;20029;-77
2021/07/24 05:59:43;;;;;;;13.13;8.15;;;17.80;85.70;;;;;;5038833;28;20040;-78
2021/07/24 06:02:12;;;;;;;13.00;7.57;;;17.90;86.20;;;;;;5033880;28;20389;-77
2021/07/24 06:04:44;;;;;;;12.32;8.70;;;18.00;85.40;;;;;;5033188;28;20506;-77
2021/07/24 06:07:11;;;;;;;14.50;8.27;;;18.00;85.20;;;;;;5049226;28;20485;-78
2021/07/24 06:09:37;;;;;;;13.85;8.52;;;18.00;85.10;;;;;;5033974;28;20167;-77
2021/07/24 06:12:03;;;;;;;16.77;9.05;;;18.10;85.00;;;;;;5032791;28;20033;-78
2021/07/24 06:14:32;;;;;;;14.63;8.15;;;18.10;85.00;;;;;;5015521;28;20539;-77
2021/07/24 06:16:57;;;;;;;13.07;8.02;;;18.20;84.90;;;;;;5033519;28;20022;-78
2021/07/24 06:19:23;;;;;;;12.55;7.20;;;18.20;84.70;;;;;;5016141;28;20025;-77
2021/07/24 06:21:48;;;;;;;16.00;8.93;;;18.30;84.60;;;;;;5033372;28;20022;-78
2021/07/24 06:24:15;;;;;;;12.40;7.40;;;18.30;84.40;;;;;;5022882;28;20044;-78
2021/07/24 06:26:40;;;;;;;11.43;7.35;;;18.30;84.40;;;;;;5068258;28;20078;-78
2021/07/24 06:29:07;;;;;;;10.60;6.57;;;18.40;84.30;;;;;;5062242;28;20025;-78
2021/07/24 06:31:33;;;;;;;12.98;7.82;;;18.50;84.50;;;;;;5055021;28;20094;-78
2021/07/24 06:34:02;;;;;;;13.45;8.32;;;18.60;84.20;;;;;;5053299;28;20481;-77
2021/07/24 06:36:28;;;;;;;17.15;8.88;;;18.60;84.00;;;;;;5053806;28;20342;-78
2021/07/24 06:38:54;;;;;;;12.60;8.07;;;18.70;83.80;;;;;;5039667;28;20021;-77
2021/07/24 06:41:20;;;;;;;12.10;7.90;;;18.70;83.70;;;;;;5056450;28;20079;-77
2021/07/24 06:43:45;;;;;;;11.40;7.28;;;18.70;83.50;;;;;;5039301;28;20365;-78
2021/07/24 06:46:12;;;;;;;13.18;8.10;;;18.80;83.30;;;;;;5057504;28;20057;-76
2021/07/24 06:48:39;;;;;;;13.70;7.80;;;18.80;83.20;;;;;;5056133;28;20068;-77
2021/07/24 06:51:06;;;;;;;11.05;7.20;;;18.90;83.10;;;;;;5057136;28;20477;-77
2021/07/24 06:53:33;;;;;;;14.30;8.10;;;18.90;83.10;;;;;;5056425;28;20025;-78
2021/07/24 06:55:59;;;;;;;13.13;8.27;;;19.00;82.90;;;;;;5056167;28;20033;-78
2021/07/24 06:58:25;;;;;;;12.85;8.55;;;19.00;83.30;;;;;;5073749;28;20073;-77
2021/07/24 07:00:50;;;;;;;14.80;8.30;;;19.10;82.60;;;;;;5075225;28;20145;-77
2021/07/24 07:03:16;;;;;;;13.05;8.10;;;19.10;82.50;;;;;;5058993;28;20626;-77
2021/07/24 07:05:41;;;;;;;14.57;8.60;;;19.10;82.40;;;;;;5075801;28;20036;-77
2021/07/24 07:08:07;;;;;;;12.27;8.23;;;19.20;82.30;;;;;;5058825;28;20078;-77
2021/07/24 07:10:32;;;;;;;12.43;7.65;;;19.20;82.20;;;;;;5076807;28;20025;-77
2021/07/24 07:12:58;;;;;;;11.07;7.00;;;19.30;82.00;;;;;;5075403;28;20036;-77
2021/07/24 07:15:28;;;;;;;12.40;7.47;;;19.40;81.90;;;;;;5058572;28;20037;-77
2021/07/24 07:17:54;;;;;;;13.02;8.05;;;19.40;81.70;;;;;;5075646;28;20036;-78
2021/07/24 07:20:20;;;;;;;11.15;7.55;;;19.50;81.60;;;;;;5041996;28;20035;-77
2021/07/24 07:22:45;;;;;;;10.25;7.22;;;19.60;81.40;;;;;;5075120;28;20055;-78
2021/07/24 07:25:11;;;;;;;11.50;7.75;;;19.60;81.30;;;;;;5075118;28;20024;-79
2021/07/24 07:27:41;;;;;;;12.27;8.02;;;19.70;81.30;;;;;;5074925;28;20032;-79
2021/07/24 07:30:08;;;;;;;12.23;8.65;;;19.70;81.10;;;;;;5075016;28;20029;-79
2021/07/24 07:32:34;;;;;;;12.00;7.63;;;19.80;80.80;;;;;;5075160;28;20089;-78
2021/07/24 07:35:00;;;;;;;13.40;7.53;;;19.90;80.70;;;;;;5075991;28;20025;-78
2021/07/24 07:37:25;;;;;;;11.40;7.20;;;19.90;80.40;;;;;;5074664;28;20392;-77
2021/07/24 07:39:51;;;;;;;10.50;6.90;;;20.00;80.30;;;;;;5075874;28;20028;-76
2021/07/24 07:42:17;;;;;;;10.30;6.97;;;20.00;80.20;;;;;;5075930;28;20103;-77
2021/07/24 07:44:43;;;;;;;11.93;6.70;;;20.10;80.10;;;;;;5076020;28;20035;-77
2021/07/24 07:47:08;;;;;;;11.25;7.18;;;20.20;80.00;;;;;;5075399;28;20028;-77
2021/07/24 07:49:34;;;;;;;11.40;7.15;;;20.30;79.90;;;;;;5075845;28;20052;-77
2021/07/24 07:52:00;;;;;;;14.60;7.32;;;20.30;79.60;;;;;;5074753;28;20107;-78
2021/07/24 07:54:30;;;;;;;10.68;7.20;;;20.40;79.40;;;;;;5075253;28;20375;-77
2021/07/24 07:56:57;;;;;;;10.98;6.90;;;20.50;79.30;;;;;;5058027;28;20484;-77
2021/07/24 07:59:23;;;;;;;13.32;7.25;;;20.60;78.90;;;;;;5066448;28;20040;-77
2021/07/24 08:01:48;;;;;;;13.48;7.45;;;20.70;78.60;;;;;;5024386;28;20390;-78
2021/07/24 08:04:14;;;;;;;12.02;7.18;;;20.70;78.50;;;;;;5055381;28;20511;-78
2021/07/24 08:06:39;;;;;;;10.40;6.82;;;20.80;78.50;;;;;;5054416;28;20029;-75
2021/07/24 08:09:05;;;;;;;10.85;7.45;;;20.90;78.30;;;;;;5055330;28;20473;-76
2021/07/24 08:11:31;;;;;;;11.05;7.18;;;21.00;78.10;;;;;;5054424;28;20481;-76
2021/07/24 08:13:56;;;;;;;12.80;7.07;;;21.00;77.80;;;;;;5055497;28;20472;-75
2021/07/24 08:16:22;;;;;;;11.80;6.93;;;21.10;77.70;;;;;;5060933;28;20047;-75
2021/07/24 08:18:48;;;;;;;10.00;6.70;;;21.30;77.60;;;;;;5045440;28;20365;-76
2021/07/24 08:21:13;;;;;;;8.90;6.43;;;21.40;77.50;;;;;;5042175;28;20389;-75
2021/07/24 08:23:39;;;;;;;11.05;7.07;;;21.50;77.10;;;;;;5035462;28;20540;-75
2021/07/24 08:26:05;;;;;;;9.02;5.72;;;21.70;76.80;;;;;;5034506;28;20034;-75
2021/07/24 08:28:31;;;;;;;9.82;6.35;;;21.80;76.90;;;;;;5034605;28;20029;-76
2021/07/24 08:30:57;;;;;;;11.68;6.07;;;21.90;75.80;;;;;;5074572;28;20384;-76
2021/07/24 08:33:23;;;;;;;9.70;6.05;;;22.10;75.20;;;;;;5073833;28;20024;-75
2021/07/24 08:35:49;;;;;;;12.40;6.07;;;22.20;75.00;;;;;;5074126;28;20112;-75
2021/07/24 08:38:14;;;;;;;7.65;4.97;;;22.30;74.80;;;;;;5074097;28;20086;-75
2021/07/24 08:40:40;;;;;;;9.50;5.93;;;22.50;74.70;;;;;;5073678;28;20491;-75
2021/07/24 08:43:07;;;;;;;11.77;6.28;;;22.60;74.30;;;;;;5075034;28;20033;-77
2021/07/24 08:45:33;;;;;;;10.63;5.45;;;22.70;74.10;;;;;;5073691;28;20024;-76
2021/07/24 08:47:59;;;;;;;9.63;5.55;;;22.80;73.80;;;;;;5073663;28;20017;-76
2021/07/24 08:50:25;;;;;;;9.23;6.00;;;23.00;73.60;;;;;;5074029;28;20021;-76
2021/07/24 08:52:53;;;;;;;8.43;5.22;;;23.10;73.20;;;;;;5073831;28;20029;-77
2021/07/24 08:55:21;;;;;;;7.72;5.25;;;23.20;72.60;;;;;;5073535;28;20495;-77
2021/07/24 08:57:47;;;;;;;10.02;5.25;;;23.40;71.90;;;;;;5056967;28;20384;-74
2021/07/24 09:00:23;;;;;;;8.20;5.32;;;23.40;71.70;;;;;;5073797;28;20032;-76
2021/07/24 09:02:52;;;;;;;8.80;5.60;;;23.50;71.50;;;;;;5073347;28;20028;-76
2021/07/24 09:05:18;;;;;;;8.55;5.05;;;23.60;71.30;;;;;;5074707;28;20045;-76
2021/07/24 09:07:46;;;;;;;10.35;5.75;;;23.70;70.90;;;;;;5051470;28;20017;-77
2021/07/24 09:10:12;;;;;;;8.50;5.45;;;23.80;70.70;;;;;;5034679;28;20114;-76
2021/07/24 09:12:43;;;;;;;8.88;5.65;;;23.90;70.60;;;;;;5049741;28;20491;-75
2021/07/24 09:15:10;;;;;;;6.97;4.82;;;24.00;70.20;;;;;;5054660;28;20025;-76
2021/07/24 09:17:36;;;;;;;8.32;5.28;;;24.10;70.00;;;;;;5054697;28;20029;-75
2021/07/24 09:20:02;;;;;;;10.30;4.75;;;24.30;69.70;;;;;;5036386;28;20040;-75
2021/07/24 09:22:29;;;;;;;10.02;5.88;;;24.40;69.20;;;;;;5053420;28;20032;-76
2021/07/24 09:25:15;;;;;;;10.52;5.93;;;24.50;68.70;;;;;;5053346;28;20029;-76
2021/07/24 09:27:42;;;;;;;8.95;5.85;;;24.60;68.10;;;;;;5054474;28;20471;-76
2021/07/24 09:30:29;;;;;;;7.55;5.00;;;24.70;67.80;;;;;;5054202;28;20144;-76
2021/07/24 09:33:01;;;;;;;8.30;5.40;;;24.80;67.50;;;;;;5054376;28;20083;-76
2021/07/24 09:35:51;;;;;;;9.02;5.47;;;24.90;67.20;;;;;;5054291;28;20112;-76
2021/07/24 09:38:32;;;;;;;9.30;5.10;;;24.90;66.90;;;;;;5052813;28;20029;-76
2021/07/24 09:41:01;;;;;;;9.60;5.35;;;25.00;66.70;;;;;;5053006;28;20066;-76
2021/07/24 09:43:35;;;;;;;8.93;5.57;;;25.00;66.70;;;;;;5052521;28;20029;-76
2021/07/24 09:46:08;;;;;;;10.90;5.65;;;25.10;66.70;;;;;;5052477;28;20024;-76
2021/07/24 09:48:34;;;;;;;8.15;5.57;;;25.10;66.50;;;;;;5060449;28;20047;-76
2021/07/24 09:51:00;;;;;;;8.48;5.97;;;25.20;66.60;;;;;;5073212;28;20468;-75
2021/07/24 09:53:41;;;;;;;9.45;5.60;;;25.20;66.60;;;;;;5073875;28;20095;-75
2021/07/24 09:56:13;;;;;;;8.10;5.88;;;25.20;66.30;;;;;;5072682;28;20484;-76
2021/07/24 09:58:39;;;;;;;7.93;5.78;;;25.20;66.10;;;;;;5041166;28;20027;-76
2021/07/24 10:01:06;;;;;;;9.48;5.75;;;25.30;65.90;;;;;;5073719;28;20095;-78
2021/07/24 10:03:35;;;;;;;8.13;5.63;;;25.30;65.70;;;;;;5072409;28;20071;-77
2021/07/24 10:06:08;;;;;;;9.50;5.75;;;25.30;65.30;;;;;;5072036;28;20044;-76
2021/07/24 10:08:35;;;;;;;7.95;5.75;;;25.20;65.00;;;;;;5056313;28;20469;-78
2021/07/24 10:11:01;;;;;;;8.32;6.45;;;25.20;65.00;;;;;;5052477;28;20083;-78
2021/07/24 10:13:27;;;;;;;9.70;6.40;;;25.20;65.10;;;;;;5035883;28;20029;-78
2021/07/24 10:15:53;;;;;;;9.05;6.20;;;25.30;65.30;;;;;;5034625;28;20091;-78
2021/07/24 10:18:18;;;;;;;10.23;6.35;;;25.20;65.10;;;;;;5053048;28;20384;-77
2021/07/24 10:20:47;;;;;;;11.27;7.47;;;25.30;64.80;;;;;;5052556;28;20033;-78
2021/07/24 10:23:17;;;;;;;10.43;6.40;;;25.30;64.50;;;;;;5053333;28;20374;-77
2021/07/24 10:26:08;;;;;;;9.82;7.10;;;25.20;64.70;;;;;;5045039;28;20063;-78
2021/07/24 10:28:38;;;;;;;10.68;6.57;;;25.20;65.00;;;;;;5068893;28;20112;-77
2021/07/24 10:31:20;;;;;;;11.98;7.55;;;25.10;65.10;;;;;;5063566;28;20083;-78
2021/07/24 10:33:46;;;;;;;9.88;6.93;;;25.10;65.20;;;;;;5053398;28;20063;-77
2021/07/24 10:36:16;;;;;;;9.95;7.30;;;25.00;64.90;;;;;;5051767;28;20086;-77
2021/07/24 10:38:58;;;;;;;10.57;7.25;;;25.00;64.90;;;;;;5052933;28;20068;-78
2021/07/24 10:41:26;;;;;;;11.75;7.68;;;25.00;64.80;;;;;;5051975;28;20033;-76
2021/07/24 10:43:58;;;;;;;9.95;7.22;;;24.90;64.80;;;;;;5069898;28;20037;-77
2021/07/24 10:46:45;;;;;;;15.52;8.10;;;24.90;64.90;;;;;;5070308;28;20024;-80
2021/07/24 10:49:22;;;;;;;12.07;8.60;;;24.80;64.80;;;;;;5073660;28;20032;-78
2021/07/24 10:51:55;;;;;;;13.60;9.85;;;24.70;65.10;;;;;;5073092;28;20055;-77
2021/07/24 10:54:21;;;;;;;14.23;9.70;;;24.70;65.30;;;;;;5071862;28;20443;-78
2021/07/24 10:56:47;;;;;;;12.30;8.52;;;24.60;65.40;;;;;;5071793;28;20353;-78
2021/07/24 10:59:13;;;;;;;11.75;8.52;;;24.50;65.50;;;;;;5055072;28;20111;-78
2021/07/24 11:02:00;;;;;;;10.43;7.80;;;24.50;65.70;;;;;;5073326;28;20096;-77
2021/07/24 11:04:41;;;;;;;11.85;7.93;;;24.50;65.90;;;;;;5071861;28;20094;-78
2021/07/24 11:07:13;;;;;;;15.45;8.32;;;24.60;66.00;;;;;;5071888;28;20020;-78
2021/07/24 11:09:39;;;;;;;11.50;8.07;;;24.60;66.10;;;;;;5073035;28;20021;-77
2021/07/24 11:12:10;;;;;;;11.57;8.55;;;24.50;66.30;;;;;;5071551;28;20020;-78
2021/07/24 11:14:38;;;;;;;11.90;7.93;;;24.50;66.30;;;;;;5072861;28;20108;-78
2021/07/24 11:17:08;;;;;;;13.45;8.95;;;24.50;66.40;;;;;;5057083;28;20060;-78
2021/07/24 11:19:45;;;;;;;13.90;8.63;;;24.50;66.60;;;;;;5052503;28;20021;-77
2021/07/24 11:22:21;;;;;;;13.02;8.60;;;24.50;67.40;;;;;;5037885;28;20062;-77
2021/07/24 11:24:49;;;;;;;13.80;8.45;;;24.50;66.90;;;;;;5049015;28;20104;-77
2021/07/24 11:27:15;;;;;;;13.52;8.30;;;24.50;67.00;;;;;;5045954;28;20021;-77
2021/07/24 11:29:41;;;;;;;11.85;9.25;;;24.50;67.10;;;;;;5055211;28;20071;-78
2021/07/24 11:32:07;;;;;;;12.48;9.38;;;24.50;67.20;;;;;;5051572;28;20027;-78
2021/07/24 11:34:35;;;;;;;13.70;9.30;;;24.50;67.40;;;;;;5046494;28;20032;-78
2021/07/24 11:37:02;;;;;;;14.93;9.68;;;24.50;67.30;;;;;;5055100;28;20025;-77
2021/07/24 11:39:30;;;;;;;11.27;8.30;;;24.50;67.30;;;;;;5050086;28;20388;-77
2021/07/24 11:41:57;;;;;;;10.02;7.13;;;24.50;67.40;;;;;;5054792;28;20017;-77
2021/07/24 11:44:32;;;;;;;11.95;7.90;;;24.50;67.50;;;;;;5053300;28;20033;-77
2021/07/24 11:47:05;;;;;;;12.60;9.00;;;24.50;67.30;;;;;;5054708;28;20381;-77
2021/07/24 11:49:31;;;;;;;13.77;9.18;;;24.60;67.50;;;;;;5046537;28;20021;-77
2021/07/24 11:51:58;;;;;;;14.02;8.95;;;24.60;67.60;;;;;;5054849;28;20021;-77
2021/07/24 11:54:32;;;;;;;15.40;9.23;;;24.60;67.70;;;;;;5050607;28;20435;-77
2021/07/24 11:56:58;;;;;;;12.45;8.65;;;24.60;67.80;;;;;;5054410;28;20032;-78
2021/07/24 11:59:26;;;;;;;12.52;9.48;;;24.50;67.80;;;;;;5037922;28;20029;-77
2021/07/24 12:01:51;;;;;;;10.70;8.60;;;24.60;67.90;;;;;;5054211;28;20044;-78
2021/07/24 12:04:17;;;;;;;13.35;8.80;;;24.60;67.90;;;;;;5035687;28;20129;-77
2021/07/24 12:07:01;;;;;;;12.88;8.95;;;24.60;68.00;;;;;;5035502;28;20516;-77
2021/07/24 12:09:27;;;;;;;;;;;24.60;68.10;;;;;;5052338;28;20026;-76
2021/07/24 12:11:58;;;;;;;11.93;8.48;;;24.60;68.10;;;;;;5054470;28;19905;-76
2021/07/24 12:14:25;;;;;;;11.65;8.57;;;24.60;68.00;;;;;;5054630;28;20028;-76
2021/07/24 12:17:03;;;;;;;11.68;8.70;;;24.60;67.90;;;;;;5048354;28;20021;-77
2021/07/24 12:19:35;;;;;;;13.65;8.85;;;24.60;67.90;;;;;;5046902;28;20026;-76
2021/07/24 12:22:18;;;;;;;14.15;9.65;;;24.70;67.90;;;;;;5064921;28;20026;-76
2021/07/24 12:24:45;;;;;;;13.43;9.00;;;24.70;68.00;;;;;;5045433;28;20028;-77
2021/07/24 12:27:13;;;;;;;12.57;9.25;;;24.70;68.00;;;;;;5039831;28;20116;-76
2021/07/24 12:29:56;;;;;;;14.68;10.38;;;24.70;68.00;;;;;;5037978;28;20079;-76
2021/07/24 12:32:23;;;;;;;13.97;9.67;;;24.70;67.90;;;;;;5053275;28;20509;-76
2021/07/24 12:34:49;;;;;;;14.75;10.23;;;24.80;67.90;;;;;;5034061;28;20297;-76
2021/07/24 12:37:32;;;;;;;12.98;9.57;;;24.80;67.80;;;;;;5035598;28;20123;-76
2021/07/24 12:40:19;;;;;;;14.45;8.98;;;24.80;67.90;;;;;;5055000;28;20021;-78
2021/07/24 12:42:46;;;;;;;16.65;9.98;;;24.70;67.90;;;;;;5051873;28;20086;-77
2021/07/24 12:45:26;;;;;;;14.55;9.90;;;24.70;67.90;;;;;;5037275;28;20049;-76